Time;durP1;ratioP1;P1;durP2;ratioP2;P2;SDS_P1;SDS_P2;PMS_P1;PMS_P2;Temp;Humidity;BMP_temperature;BMP_pressure;BME280_temperature;BME280_humidity;BME280_pressure;Samples;Min_cycle;Max_cycle;Signal;HPM_P1;HPM_P2
2023/11/14 00:02:24;;;;;;;16.15;3.10;;;12.50;99.90;;;;;;6207250;23;20005;-74
2023/11/14 00:04:50;;;;;;;28.52;2.90;;;12.50;99.90;;;;;;6210652;23;20039;-74
2023/11/14 00:07:15;;;;;;;30.23;4.30;;;12.50;99.90;;;;;;6208168;23;20442;-76
2023/11/14 00:09:41;;;;;;;21.90;3.47;;;12.60;99.90;;;;;;6210464;23;20009;-77
2023/11/14 00:12:07;;;;;;;24.60;3.80;;;12.60;99.90;;;;;;6206581;23;20012;-76
2023/11/14 00:14:33;;;;;;;27.42;4.00;;;12.60;99.90;;;;;;6209254;23;20005;-76
2023/11/14 00:16:58;;;;;;;26.23;3.05;;;12.60;99.90;;;;;;6208668;23;20005;-76
2023/11/14 00:19:24;;;;;;;29.58;3.72;;;12.60;99.90;;;;;;6207917;23;20083;-76
2023/11/14 00:21:50;;;;;;;22.55;3.15;;;12.70;99.90;;;;;;6207498;23;20099;-75
2023/11/14 00:24:16;;;;;;;31.13;4.53;;;12.70;99.90;;;;;;6208133;23;20445;-77
2023/11/14 00:26:42;;;;;;;23.55;2.97;;;12.60;99.90;;;;;;6208867;23;20065;-76
2023/11/14 00:29:08;;;;;;;25.40;4.28;;;12.50;99.90;;;;;;6206438;23;20016;-75
2023/11/14 00:31:33;;;;;;;19.65;3.67;;;12.60;99.90;;;;;;6204674;23;20438;-75
2023/11/14 00:33:59;;;;;;;27.63;4.03;;;12.50;99.90;;;;;;6206560;23;20397;-76
2023/11/14 00:36:25;;;;;;;33.00;5.38;;;12.60;99.90;;;;;;6209063;23;20008;-76
2023/11/14 00:38:50;;;;;;;34.42;4.57;;;12.60;99.90;;;;;;6208051;23;20013;-75
2023/11/14 00:41:17;;;;;;;37.72;4.47;;;12.60;99.90;;;;;;6208510;23;20043;-75
2023/11/14 00:43:42;;;;;;;22.33;2.97;;;12.60;99.90;;;;;;6209302;23;20001;-75
2023/11/14 00:46:12;;;;;;;24.55;4.47;;;12.60;99.90;;;;;;6206139;23;20063;-75
2023/11/14 00:48:37;;;;;;;24.55;3.03;;;12.60;99.90;;;;;;6209111;23;20005;-76
2023/11/14 00:51:03;;;;;;;20.83;3.13;;;12.60;99.90;;;;;;6206350;23;20134;-76
2023/11/14 00:53:29;;;;;;;20.83;2.90;;;12.70;99.90;;;;;;6207555;23;20000;-77
2023/11/14 00:55:55;;;;;;;23.80;2.95;;;12.70;99.90;;;;;;6207632;23;20486;-75
2023/11/14 00:58:21;;;;;;;18.20;3.78;;;12.70;99.90;;;;;;6205824;23;20343;-76
2023/11/14 01:00:47;;;;;;;26.50;4.70;;;12.60;99.90;;;;;;6209981;23;20012;-77
2023/11/14 01:03:12;;;;;;;25.52;6.28;;;12.60;99.90;;;;;;6206649;23;20020;-77
2023/11/14 01:05:38;;;;;;;28.02;4.43;;;12.70;99.90;;;;;;6207274;23;20000;-76
2023/11/14 01:08:05;;;;;;;26.17;3.22;;;12.60;99.90;;;;;;6205904;23;20000;-76
2023/11/14 01:10:30;;;;;;;21.20;3.22;;;12.60;99.90;;;;;;6208650;23;20361;-77
2023/11/14 01:12:59;;;;;;;22.25;4.05;;;12.60;99.90;;;;;;6209304;23;20035;-75
2023/11/14 01:15:25;;;;;;;23.88;3.67;;;12.60;99.90;;;;;;6208713;23;20012;-75
2023/11/14 01:17:51;;;;;;;29.88;4.88;;;12.70;99.90;;;;;;6207285;23;20031;-75
2023/11/14 01:20:16;;;;;;;24.60;3.70;;;12.60;99.90;;;;;;6207753;23;20020;-75
2023/11/14 01:22:42;;;;;;;22.33;3.53;;;12.60;99.90;;;;;;6207219;23;20371;-76
2023/11/14 01:25:08;;;;;;;28.75;3.38;;;12.60;99.90;;;;;;6205842;23;20328;-75
2023/11/14 01:27:34;;;;;;;24.73;3.58;;;12.60;99.90;;;;;;6207208;23;20040;-76
2023/11/14 01:29:59;;;;;;;25.95;4.88;;;12.60;99.90;;;;;;6205813;23;20097;-75
2023/11/14 01:32:25;;;;;;;21.63;3.28;;;12.50;99.90;;;;;;6209140;23;20009;-75
2023/11/14 01:34:51;;;;;;;31.70;3.67;;;12.60;99.90;;;;;;6208814;23;20008;-75
2023/11/14 01:37:17;;;;;;;17.70;2.90;;;12.60;99.90;;;;;;6205268;23;20036;-76
2023/11/14 01:39:44;;;;;;;16.15;2.95;;;12.60;99.90;;;;;;6208560;23;20016;-77
2023/11/14 01:42:10;;;;;;;19.13;3.38;;;12.60;99.90;;;;;;6205084;23;20022;-75
2023/11/14 01:44:36;;;;;;;23.90;5.70;;;12.60;99.90;;;;;;6208748;23;20413;-76
2023/11/14 01:47:02;;;;;;;20.92;3.75;;;12.60;99.90;;;;;;6207364;23;20080;-76
2023/11/14 01:49:29;;;;;;;26.80;3.17;;;12.70;99.90;;;;;;6206642;23;20004;-76
2023/11/14 01:51:55;;;;;;;22.95;4.35;;;12.60;99.90;;;;;;6208608;23;20012;-76
2023/11/14 01:54:21;;;;;;;27.52;4.65;;;12.60;99.90;;;;;;6207662;23;20012;-76
2023/11/14 01:56:48;;;;;;;19.88;3.60;;;12.60;99.90;;;;;;6208565;23;20012;-75
2023/11/14 01:59:14;;;;;;;16.63;3.22;;;12.70;99.90;;;;;;6205235;23;20469;-76
2023/11/14 02:01:39;;;;;;;29.05;5.53;;;12.50;99.90;;;;;;6206452;23;20021;-76
2023/11/14 02:04:12;;;;;;;17.27;3.72;;;12.50;99.90;;;;;;6206882;23;20016;-76
2023/11/14 02:06:38;;;;;;;17.27;2.90;;;12.40;99.90;;;;;;6206915;23;20012;-77
2023/11/14 02:09:07;;;;;;;25.25;4.40;;;12.40;99.90;;;;;;6206242;23;20088;-75
2023/11/14 02:11:33;;;;;;;20.73;3.08;;;12.30;99.90;;;;;;6207021;23;20383;-76
2023/11/14 02:13:59;;;;;;;19.13;3.97;;;12.30;99.90;;;;;;6205871;23;20039;-76
2023/11/14 02:16:26;;;;;;;24.15;3.20;;;12.30;99.90;;;;;;6208220;23;20013;-76
2023/11/14 02:18:53;;;;;;;19.33;3.08;;;12.40;99.90;;;;;;6207134;23;20015;-76
2023/11/14 02:21:21;;;;;;;28.67;3.75;;;12.40;99.90;;;;;;6207965;23;20028;-77
2023/11/14 02:23:48;;;;;;;28.25;4.70;;;12.40;99.90;;;;;;6208981;23;20009;-75
2023/11/14 02:26:14;;;;;;;36.47;4.18;;;12.40;99.90;;;;;;6205788;23;20063;-76
2023/11/14 02:28:39;;;;;;;20.63;2.97;;;12.50;99.90;;;;;;6208854;23;20409;-76
2023/11/14 02:31:06;;;;;;;34.88;4.22;;;12.40;99.90;;;;;;6205126;23;20012;-76
2023/11/14 02:33:33;;;;;;;21.38;3.63;;;12.40;99.90;;;;;;6208597;23;20013;-73
2023/11/14 02:35:59;;;;;;;25.73;2.85;;;12.40;99.90;;;;;;6205858;23;20307;-78
2023/11/14 02:46:17;;;;;;;27.05;4.18;;;12.30;99.90;;;;;;6156772;22;20068;-75
2023/11/14 02:48:44;;;;;;;20.83;3.92;;;12.30;99.90;;;;;;6207728;23;20013;-75
2023/11/14 02:51:09;;;;;;;26.55;3.47;;;12.40;99.90;;;;;;6206342;23;20013;-73
2023/11/14 02:53:35;;;;;;;23.65;3.78;;;12.40;99.90;;;;;;6207176;23;20311;-74
2023/11/14 02:56:01;;;;;;;25.00;2.97;;;12.50;99.90;;;;;;6206089;23;20047;-75
2023/11/14 02:58:27;;;;;;;27.40;3.90;;;12.50;99.90;;;;;;6207051;23;20084;-76
2023/11/14 03:00:52;;;;;;;18.60;2.70;;;12.40;99.90;;;;;;6207101;23;20037;-74
2023/11/14 03:03:19;;;;;;;28.10;4.28;;;12.40;99.90;;;;;;6206085;23;20017;-74
2023/11/14 03:05:45;;;;;;;14.90;3.53;;;12.50;99.90;;;;;;6206832;23;20013;-74
2023/11/14 03:08:11;;;;;;;25.10;3.70;;;12.40;99.90;;;;;;6205813;23;20004;-74
2023/11/14 03:10:37;;;;;;;19.50;3.13;;;12.50;99.90;;;;;;6207000;23;20584;-76
2023/11/14 03:13:04;;;;;;;18.42;3.60;;;12.50;99.90;;;;;;6205807;23;20019;-75
2023/11/14 03:15:31;;;;;;;22.13;4.18;;;12.60;99.90;;;;;;6208633;23;20009;-74
2023/11/14 03:17:58;;;;;;;16.35;3.28;;;12.60;99.90;;;;;;6207326;23;20453;-74
2023/11/14 03:20:27;;;;;;;29.42;5.10;;;12.60;99.90;;;;;;6206220;23;20005;-75
2023/11/14 03:22:52;;;;;;;21.85;4.03;;;12.60;99.90;;;;;;6207325;23;20802;-74
2023/11/14 03:25:18;;;;;;;23.58;5.32;;;12.60;99.90;;;;;;6206103;23;20083;-76
2023/11/14 03:27:44;;;;;;;20.48;3.63;;;12.60;99.90;;;;;;6207160;23;20012;-74
2023/11/14 03:30:12;;;;;;;20.17;3.17;;;12.60;99.90;;;;;;6206085;23;20139;-75
2023/11/14 03:32:37;;;;;;;25.67;3.50;;;12.60;99.90;;;;;;6207463;23;20032;-75
2023/11/14 03:35:04;;;;;;;34.85;4.20;;;12.60;99.90;;;;;;6207357;23;20004;-76
2023/11/14 03:37:30;;;;;;;19.23;2.38;;;12.60;99.90;;;;;;6208571;23;20009;-75
2023/11/14 03:39:56;;;;;;;20.85;3.70;;;12.60;99.90;;;;;;6208987;23;20111;-75
2023/11/14 03:42:21;;;;;;;25.45;4.38;;;12.60;99.90;;;;;;6208011;23;20009;-74
2023/11/14 03:44:47;;;;;;;16.35;2.17;;;12.60;99.90;;;;;;6208526;23;20394;-75
2023/11/14 03:47:13;;;;;;;18.75;3.47;;;12.60;99.90;;;;;;6207053;23;20029;-74
2023/11/14 03:49:38;;;;;;;23.25;2.97;;;12.60;99.90;;;;;;6210284;23;20008;-74
2023/11/14 03:52:04;;;;;;;21.60;4.45;;;12.60;99.90;;;;;;6207390;23;20075;-75
2023/11/14 03:54:30;;;;;;;13.35;2.83;;;12.60;99.90;;;;;;6208603;23;20036;-74
2023/11/14 03:56:56;;;;;;;22.23;3.08;;;12.70;99.90;;;;;;6208775;23;20009;-76
2023/11/14 03:59:21;;;;;;;25.20;4.95;;;12.60;99.90;;;;;;6207446;23;20016;-75
2023/11/14 04:01:47;;;;;;;20.70;3.88;;;12.60;99.90;;;;;;6208353;23;20023;-75
2023/11/14 04:04:13;;;;;;;22.92;3.00;;;12.60;99.90;;;;;;6207256;23;20350;-76
2023/11/14 04:06:38;;;;;;;14.60;2.15;;;12.50;99.90;;;;;;6208696;23;20095;-76
2023/11/14 04:09:05;;;;;;;18.63;3.05;;;12.50;99.90;;;;;;6207504;23;20005;-74
2023/11/14 04:11:30;;;;;;;21.15;3.67;;;12.50;99.90;;;;;;6209108;23;20030;-75
2023/11/14 04:13:56;;;;;;;25.58;4.47;;;12.50;99.90;;;;;;6209694;23;20583;-74
2023/11/14 04:16:22;;;;;;;28.52;3.33;;;12.50;99.90;;;;;;6209180;23;20005;-74
2023/11/14 04:18:47;;;;;;;23.95;3.00;;;12.50;99.90;;;;;;6208512;23;20346;-75
2023/11/14 04:21:19;;;;;;;13.18;4.10;;;12.40;99.90;;;;;;6209201;23;20009;-77
2023/11/14 04:23:48;;;;;;;26.92;3.95;;;12.40;99.90;;;;;;6208460;23;20005;-74
2023/11/14 04:26:14;;;;;;;18.65;2.85;;;12.40;99.90;;;;;;6207439;23;20434;-75
2023/11/14 04:28:40;;;;;;;22.23;4.35;;;12.40;99.90;;;;;;6208607;23;20015;-74
2023/11/14 04:31:06;;;;;;;30.30;3.38;;;12.40;99.90;;;;;;6206843;23;20035;-74
2023/11/14 04:33:32;;;;;;;16.13;3.10;;;12.40;99.90;;;;;;6208614;23;20008;-76
2023/11/14 04:35:57;;;;;;;17.17;3.30;;;12.40;99.90;;;;;;6208259;23;20033;-74
2023/11/14 04:38:23;;;;;;;17.75;3.03;;;12.40;99.90;;;;;;6206999;23;20027;-74
2023/11/14 04:40:49;;;;;;;21.23;2.60;;;12.30;99.90;;;;;;6208284;23;20025;-74
2023/11/14 04:43:14;;;;;;;19.83;3.58;;;12.30;99.90;;;;;;6207011;23;20008;-75
2023/11/14 04:45:40;;;;;;;23.38;3.85;;;12.30;99.90;;;;;;6208088;23;20512;-74
2023/11/14 04:48:06;;;;;;;22.70;3.13;;;12.30;99.90;;;;;;6208521;23;20095;-76
2023/11/14 04:50:31;;;;;;;23.05;2.80;;;12.30;99.90;;;;;;6207890;23;20007;-76
2023/11/14 04:52:57;;;;;;;21.17;4.43;;;12.30;99.90;;;;;;6208092;23;20088;-75
2023/11/14 04:55:22;;;;;;;20.65;3.00;;;12.30;99.90;;;;;;6206680;23;20118;-74
2023/11/14 04:57:48;;;;;;;25.75;3.58;;;12.30;99.90;;;;;;6209849;23;20016;-76
2023/11/14 05:00:14;;;;;;;25.48;4.28;;;12.30;99.90;;;;;;6206753;23;20024;-74
2023/11/14 05:02:40;;;;;;;17.67;3.13;;;12.30;99.90;;;;;;6208227;23;20015;-75
2023/11/14 05:05:07;;;;;;;18.98;3.38;;;12.30;99.90;;;;;;6206780;23;20009;-76
2023/11/14 05:07:32;;;;;;;21.30;3.05;;;12.30;99.90;;;;;;6209439;23;20079;-75
2023/11/14 05:09:59;;;;;;;26.70;4.38;;;12.30;99.90;;;;;;6208212;23;20043;-74
2023/11/14 05:12:25;;;;;;;19.23;5.13;;;12.40;99.90;;;;;;6209225;23;20523;-75
2023/11/14 05:14:51;;;;;;;27.95;3.60;;;12.40;99.90;;;;;;6209860;23;20080;-75
2023/11/14 05:17:16;;;;;;;24.80;4.28;;;12.40;99.90;;;;;;6206241;23;20022;-75
2023/11/14 05:19:42;;;;;;;29.60;4.85;;;12.40;99.90;;;;;;6209780;23;20083;-76
2023/11/14 05:22:08;;;;;;;30.98;5.15;;;12.40;99.90;;;;;;6206587;23;20605;-74
2023/11/14 05:24:33;;;;;;;24.83;4.07;;;12.40;99.90;;;;;;6207739;23;20023;-76
2023/11/14 05:26:59;;;;;;;23.50;3.40;;;12.40;99.90;;;;;;6207372;23;20044;-75
2023/11/14 05:29:24;;;;;;;24.27;4.43;;;12.40;99.90;;;;;;6208917;23;20095;-77
2023/11/14 05:31:50;;;;;;;16.15;3.42;;;12.40;99.90;;;;;;6208571;23;20012;-75
2023/11/14 05:34:16;;;;;;;24.67;3.78;;;12.40;99.90;;;;;;6206546;23;20004;-74
2023/11/14 05:36:41;;;;;;;20.33;2.92;;;12.50;99.90;;;;;;6208322;23;20005;-74
2023/11/14 05:39:07;;;;;;;33.88;4.35;;;12.50;99.90;;;;;;6208247;23;20335;-75
2023/11/14 05:41:33;;;;;;;25.20;3.22;;;12.40;99.90;;;;;;6207493;23;20066;-76
2023/11/14 05:43:59;;;;;;;17.08;3.70;;;12.40;99.90;;;;;;6207276;23;20012;-78
2023/11/14 05:46:25;;;;;;;16.85;3.08;;;12.40;99.90;;;;;;6206574;23;20008;-75
2023/11/14 05:48:50;;;;;;;21.48;3.22;;;12.40;99.90;;;;;;6208603;23;20012;-76
2023/11/14 05:51:17;;;;;;;23.52;4.78;;;12.40;99.90;;;;;;6209219;23;20260;-76
2023/11/14 05:53:45;;;;;;;28.05;4.25;;;12.30;99.90;;;;;;6203727;23;20009;-74
2023/11/14 05:56:11;;;;;;;20.50;3.70;;;12.30;99.90;;;;;;6203145;23;20008;-75
2023/11/14 05:58:36;;;;;;;21.90;3.78;;;12.30;99.90;;;;;;6204194;23;20029;-74
2023/11/14 06:01:02;;;;;;;19.45;3.15;;;12.30;99.90;;;;;;6203620;23;20017;-76
2023/11/14 06:03:28;;;;;;;26.73;4.15;;;12.30;99.90;;;;;;6205169;23;20514;-76
2023/11/14 06:05:53;;;;;;;29.30;4.03;;;12.40;99.90;;;;;;6204857;23;20081;-76
2023/11/14 06:08:19;;;;;;;20.45;3.28;;;12.40;99.90;;;;;;6203532;23;21891;-76
2023/11/14 06:10:45;;;;;;;21.77;3.72;;;12.40;99.90;;;;;;6204253;23;20057;-76
2023/11/14 06:13:11;;;;;;;17.83;5.10;;;12.50;99.90;;;;;;6205172;23;20086;-76
2023/11/14 06:15:36;;;;;;;26.35;2.88;;;12.40;99.90;;;;;;6204124;23;20450;-76
2023/11/14 06:18:02;;;;;;;24.90;3.72;;;12.50;99.90;;;;;;6205016;23;20461;-76
2023/11/14 06:20:29;;;;;;;23.30;4.00;;;12.40;99.90;;;;;;6204869;23;20076;-75
2023/11/14 06:22:55;;;;;;;28.52;3.40;;;12.50;99.90;;;;;;6204629;23;20086;-76
2023/11/14 06:25:21;;;;;;;28.67;3.47;;;12.50;99.90;;;;;;6204451;23;20013;-75
2023/11/14 06:27:47;;;;;;;26.63;4.30;;;12.50;99.90;;;;;;6205859;23;20001;-75
2023/11/14 06:30:13;;;;;;;18.60;3.08;;;12.40;99.90;;;;;;6205973;23;20008;-75
2023/11/14 06:32:39;;;;;;;20.88;3.42;;;12.40;99.90;;;;;;6206062;23;20032;-76
2023/11/14 06:35:05;;;;;;;16.95;3.45;;;12.40;99.90;;;;;;6203701;23;20012;-75
2023/11/14 06:37:31;;;;;;;26.23;2.97;;;12.40;99.90;;;;;;6206220;23;20066;-77
2023/11/14 06:39:56;;;;;;;23.48;3.40;;;12.40;99.90;;;;;;6206288;23;20083;-76
2023/11/14 06:42:23;;;;;;;25.55;3.03;;;12.40;99.90;;;;;;6203701;23;20077;-75
2023/11/14 06:44:49;;;;;;;19.25;3.17;;;12.40;99.90;;;;;;6204331;23;20568;-76
2023/11/14 06:47:15;;;;;;;19.48;4.68;;;12.40;99.90;;;;;;6202985;23;20021;-77
2023/11/14 06:49:42;;;;;;;26.98;3.83;;;12.50;99.90;;;;;;6204621;23;20013;-76
2023/11/14 06:52:08;;;;;;;28.20;2.83;;;12.40;99.90;;;;;;6203053;23;20021;-76
2023/11/14 06:54:33;;;;;;;32.17;3.38;;;12.40;99.90;;;;;;6205742;23;20066;-75
2023/11/14 06:56:59;;;;;;;19.75;4.30;;;12.30;99.90;;;;;;6205217;23;20621;-77
2023/11/14 06:59:25;;;;;;;23.95;3.03;;;12.10;99.90;;;;;;6203388;23;20535;-77
2023/11/14 07:01:52;;;;;;;27.23;4.32;;;12.00;99.90;;;;;;6204712;23;20005;-76
2023/11/14 07:04:21;;;;;;;35.97;4.43;;;11.90;99.90;;;;;;6203491;23;20013;-75
2023/11/14 07:06:46;;;;;;;21.05;3.65;;;11.80;99.90;;;;;;6206354;23;20068;-75
2023/11/14 07:09:15;;;;;;;22.73;2.88;;;11.80;99.90;;;;;;6206303;23;20100;-75
2023/11/14 07:11:41;;;;;;;25.35;3.17;;;11.80;99.90;;;;;;6207013;23;20147;-75
2023/11/14 07:14:08;;;;;;;17.45;3.33;;;11.70;99.90;;;;;;6205242;23;20016;-75
2023/11/14 07:16:33;;;;;;;28.98;4.05;;;11.60;99.90;;;;;;6206528;23;20012;-75
2023/11/14 07:18:59;;;;;;;25.70;3.10;;;11.70;99.90;;;;;;6206956;23;20323;-75
2023/11/14 07:21:24;;;;;;;27.50;3.95;;;11.70;99.90;;;;;;6205671;23;20107;-75
2023/11/14 07:23:50;;;;;;;18.70;3.05;;;11.70;99.90;;;;;;6206989;23;20011;-74
2023/11/14 07:26:15;;;;;;;37.25;5.85;;;11.80;99.90;;;;;;6205539;23;20009;-74
2023/11/14 07:28:41;;;;;;;26.75;4.47;;;11.80;99.90;;;;;;6208588;23;20047;-75
2023/11/14 07:31:07;;;;;;;20.90;3.97;;;11.80;99.90;;;;;;6207505;23;20017;-76
2023/11/14 07:33:32;;;;;;;31.58;5.40;;;11.80;99.90;;;;;;6207389;23;20026;-76
2023/11/14 07:35:58;;;;;;;21.67;3.53;;;11.80;99.90;;;;;;6208702;23;20000;-75
2023/11/14 07:38:24;;;;;;;29.70;5.25;;;11.80;99.90;;;;;;6205802;23;20004;-76
2023/11/14 07:40:50;;;;;;;19.27;3.20;;;11.80;99.90;;;;;;6206505;23;20035;-75
2023/11/14 07:43:17;;;;;;;20.40;2.67;;;11.90;99.90;;;;;;6208064;23;20416;-76
2023/11/14 07:45:43;;;;;;;24.98;3.60;;;11.90;99.90;;;;;;6212494;23;20008;-76
2023/11/14 07:48:08;;;;;;;24.92;3.72;;;11.90;99.90;;;;;;6206241;23;20021;-74
2023/11/14 07:50:34;;;;;;;37.53;5.47;;;11.90;99.90;;;;;;6207200;23;20005;-75
2023/11/14 07:53:00;;;;;;;30.58;4.38;;;11.90;99.90;;;;;;6206843;23;20096;-76
2023/11/14 07:55:25;;;;;;;31.85;3.95;;;11.90;99.90;;;;;;6205565;23;20012;-77
2023/11/14 07:57:51;;;;;;;25.60;4.18;;;11.90;99.90;;;;;;6207832;23;20047;-75
2023/11/14 08:00:18;;;;;;;25.25;3.75;;;11.90;99.90;;;;;;6205434;23;20012;-75
2023/11/14 08:02:43;;;;;;;31.05;5.00;;;12.00;99.90;;;;;;6206932;23;20012;-76
2023/11/14 08:05:09;;;;;;;38.00;4.53;;;12.00;99.90;;;;;;6206302;22;20016;-74
2023/11/14 08:07:35;;;;;;;18.88;3.22;;;12.10;99.90;;;;;;6207541;23;20099;-75
2023/11/14 08:10:01;;;;;;;28.38;3.13;;;12.10;99.90;;;;;;6203697;23;20063;-75
2023/11/14 08:12:27;;;;;;;29.25;3.55;;;12.10;99.90;;;;;;6208280;23;20024;-75
2023/11/14 08:14:53;;;;;;;24.30;3.35;;;12.20;99.90;;;;;;6204998;23;20011;-75
2023/11/14 08:17:18;;;;;;;20.77;4.38;;;12.10;99.90;;;;;;6203821;22;20343;-75
2023/11/14 08:19:48;;;;;;;29.38;4.32;;;12.10;99.90;;;;;;6206234;23;20147;-74
2023/11/14 08:22:14;;;;;;;29.65;4.15;;;12.20;99.90;;;;;;6204903;23;20031;-76
2023/11/14 08:24:40;;;;;;;18.95;3.67;;;12.10;99.90;;;;;;6206570;23;20016;-75
2023/11/14 08:27:05;;;;;;;25.90;4.40;;;12.10;99.90;;;;;;6204438;23;20031;-75
2023/11/14 08:29:32;;;;;;;24.13;3.97;;;12.00;99.90;;;;;;6207328;23;20460;-75
2023/11/14 08:31:58;;;;;;;21.35;4.47;;;12.10;99.90;;;;;;6206679;23;20017;-75
2023/11/14 08:34:24;;;;;;;25.40;3.50;;;12.10;99.90;;;;;;6205182;23;20385;-76
2023/11/14 08:36:50;;;;;;;32.40;3.80;;;12.10;99.90;;;;;;6208270;23;20015;-76
2023/11/14 08:39:16;;;;;;;24.90;3.22;;;12.20;99.90;;;;;;6208805;23;20020;-78
2023/11/14 08:41:42;;;;;;;29.70;4.63;;;12.20;99.90;;;;;;6215732;23;20018;-78
2023/11/14 08:44:08;;;;;;;25.85;4.47;;;12.20;99.90;;;;;;6210744;23;20469;-78
2023/11/14 08:46:34;;;;;;;17.67;3.53;;;12.20;99.90;;;;;;6205522;23;20083;-75
2023/11/14 08:49:00;;;;;;;26.85;4.75;;;12.30;99.90;;;;;;6205679;23;20039;-77
2023/11/14 08:51:26;;;;;;;26.95;3.20;;;12.30;99.90;;;;;;6203966;23;20084;-75
2023/11/14 08:53:52;;;;;;;31.48;3.75;;;12.30;99.90;;;;;;6205892;23;20087;-77
2023/11/14 08:56:18;;;;;;;20.40;2.42;;;12.30;99.90;;;;;;6203610;23;20013;-76
2023/11/14 08:58:43;;;;;;;21.75;3.03;;;12.30;99.90;;;;;;6205339;23;20481;-77
2023/11/14 09:01:11;;;;;;;27.70;4.28;;;12.40;99.90;;;;;;6204220;23;20008;-75
2023/11/14 09:03:37;;;;;;;22.35;3.92;;;12.50;99.90;;;;;;6205214;23;20009;-76
2023/11/14 09:06:03;;;;;;;31.50;3.40;;;12.60;99.90;;;;;;6203889;23;20020;-77
2023/11/14 09:08:29;;;;;;;27.67;5.00;;;12.60;99.90;;;;;;6205248;23;20015;-77
2023/11/14 09:10:55;;;;;;;31.23;4.47;;;12.70;99.90;;;;;;6207079;23;20058;-75
2023/11/14 09:13:20;;;;;;;22.65;2.50;;;12.80;99.90;;;;;;6205302;23;20016;-76
2023/11/14 09:15:46;;;;;;;22.52;2.88;;;12.80;99.90;;;;;;6206877;23;20051;-76
2023/11/14 09:18:13;;;;;;;28.38;5.95;;;12.80;99.90;;;;;;6205335;23;20518;-76
2023/11/14 09:20:39;;;;;;;22.95;3.38;;;12.80;99.90;;;;;;6204893;23;20009;-76
2023/11/14 09:23:05;;;;;;;26.45;3.83;;;12.80;99.90;;;;;;6203730;23;20001;-76
2023/11/14 09:25:30;;;;;;;19.40;3.97;;;12.80;99.90;;;;;;6205012;23;20005;-76
2023/11/14 09:27:56;;;;;;;16.00;2.70;;;12.90;99.90;;;;;;6206813;23;20484;-76
2023/11/14 09:30:23;;;;;;;21.35;2.60;;;12.90;99.90;;;;;;6204820;23;20008;-74
2023/11/14 09:32:48;;;;;;;21.45;3.40;;;12.80;99.90;;;;;;6209266;23;20104;-76
2023/11/14 09:35:14;;;;;;;30.45;3.30;;;12.80;99.90;;;;;;6204909;23;20032;-76
2023/11/14 09:37:41;;;;;;;21.45;2.90;;;12.80;99.90;;;;;;6204814;23;20016;-75
2023/11/14 09:40:08;;;;;;;24.17;3.97;;;12.80;99.90;;;;;;6203521;23;20019;-78
2023/11/14 09:42:37;;;;;;;19.20;3.38;;;12.90;99.90;;;;;;6206668;23;20001;-76
2023/11/14 09:45:04;;;;;;;26.08;3.90;;;13.10;99.90;;;;;;6204688;23;20024;-77
2023/11/14 09:47:31;;;;;;;22.33;3.53;;;13.20;99.90;;;;;;6206069;23;20020;-77
2023/11/14 09:49:57;;;;;;;23.38;3.22;;;13.30;99.90;;;;;;6204432;23;20098;-78
2023/11/14 09:52:24;;;;;;;21.13;3.67;;;13.40;99.90;;;;;;6202958;23;20027;-77
2023/11/14 09:54:50;;;;;;;16.65;2.58;;;13.50;99.90;;;;;;6204515;23;20051;-78
2023/11/14 09:57:18;;;;;;;15.98;3.05;;;13.50;99.90;;;;;;6203171;23;20016;-76
2023/11/14 09:59:45;;;;;;;25.80;4.47;;;13.60;99.90;;;;;;6203907;23;20008;-75
2023/11/14 10:02:11;;;;;;;12.75;2.35;;;13.60;99.90;;;;;;6203617;23;20016;-76
2023/11/14 10:04:43;;;;;;;21.13;2.83;;;13.70;99.90;;;;;;6205359;23;20013;-76
2023/11/14 10:07:09;;;;;;;22.23;4.47;;;13.70;99.90;;;;;;6203667;23;20347;-77
2023/11/14 10:09:40;;;;;;;26.35;3.35;;;13.70;99.90;;;;;;6206049;23;20016;-76
2023/11/14 10:12:08;;;;;;;19.90;2.80;;;13.70;99.90;;;;;;6204607;23;20015;-76
2023/11/14 10:14:45;;;;;;;20.20;3.05;;;13.70;99.90;;;;;;6207137;23;20527;-77
2023/11/14 10:17:13;;;;;;;24.60;3.28;;;13.70;99.90;;;;;;6204023;23;20009;-78
2023/11/14 10:20:00;;;;;;;18.88;2.63;;;13.70;99.90;;;;;;6206893;23;20040;-75
2023/11/14 10:22:29;;;;;;;15.23;2.80;;;13.60;99.90;;;;;;6220805;23;20012;-76
2023/11/14 10:24:56;;;;;;;18.48;2.45;;;13.60;99.90;;;;;;6216178;23;20015;-78
2023/11/14 10:27:36;;;;;;;19.65;3.55;;;13.60;99.90;;;;;;6203960;23;20103;-77
2023/11/14 10:30:02;;;;;;;19.60;3.10;;;13.60;99.90;;;;;;6203984;23;20015;-76
2023/11/14 10:32:28;;;;;;;17.15;2.22;;;13.60;99.90;;;;;;6207413;23;20705;-78
2023/11/14 10:34:54;;;;;;;20.58;2.60;;;13.70;99.90;;;;;;6205713;23;20013;-78
2023/11/14 10:37:30;;;;;;;13.02;3.30;;;13.70;99.90;;;;;;6204308;23;20009;-76
2023/11/14 10:39:56;;;;;;;15.18;2.60;;;13.70;99.90;;;;;;6207369;23;20020;-78
2023/11/14 10:42:23;;;;;;;13.13;2.95;;;13.70;99.90;;;;;;6207711;23;20013;-76
2023/11/14 10:45:06;;;;;;;25.35;3.55;;;13.60;99.90;;;;;;6207071;23;20012;-76
2023/11/14 10:47:50;;;;;;;14.27;3.22;;;13.60;99.90;;;;;;6207532;23;20070;-76
2023/11/14 10:50:27;;;;;;;19.67;2.95;;;13.60;99.90;;;;;;6204232;23;20012;-76
2023/11/14 10:52:53;;;;;;;15.18;2.35;;;13.70;99.90;;;;;;6205799;23;20016;-75
2023/11/14 10:55:23;;;;;;;20.35;3.00;;;13.60;99.90;;;;;;6204905;23;20009;-76
2023/11/14 10:57:54;;;;;;;23.30;3.25;;;13.70;99.90;;;;;;6205268;23;20008;-76
2023/11/14 11:00:21;;;;;;;24.40;4.40;;;13.70;99.90;;;;;;6205506;23;20023;-77
2023/11/14 11:02:50;;;;;;;30.70;3.33;;;13.70;99.90;;;;;;6205823;23;20016;-75
2023/11/14 11:05:17;;;;;;;21.80;4.35;;;13.70;99.90;;;;;;6203514;23;20017;-76
2023/11/14 11:07:43;;;;;;;20.05;4.60;;;13.70;99.90;;;;;;6206510;23;20362;-75
2023/11/14 11:10:09;;;;;;;25.98;3.80;;;13.70;99.90;;;;;;6205481;23;20071;-77
2023/11/14 11:12:37;;;;;;;29.23;4.78;;;13.70;99.90;;;;;;6219058;23;20016;-77
2023/11/14 11:15:04;;;;;;;31.23;4.32;;;13.60;99.90;;;;;;6214135;23;20493;-76
2023/11/14 11:17:46;;;;;;;28.35;3.72;;;13.60;99.90;;;;;;6205328;23;20015;-77
2023/11/14 11:20:22;;;;;;;36.83;4.30;;;13.70;99.90;;;;;;6204734;23;20027;-76
2023/11/14 11:23:01;;;;;;;19.88;2.90;;;13.70;99.90;;;;;;6203934;23;20019;-77
2023/11/14 11:25:27;;;;;;;28.15;3.42;;;13.70;99.90;;;;;;6205401;23;20017;-77
2023/11/14 11:27:53;;;;;;;18.75;3.78;;;13.70;99.90;;;;;;6206249;23;20012;-75
2023/11/14 11:30:19;;;;;;;26.77;4.43;;;13.70;99.90;;;;;;6201613;23;20016;-74
2023/11/14 11:32:45;;;;;;;39.00;4.47;;;13.70;99.90;;;;;;6204195;23;20067;-76
2023/11/14 11:35:20;;;;;;;21.70;3.75;;;13.70;99.90;;;;;;6204510;23;20040;-75
2023/11/14 11:37:55;;;;;;;30.42;5.00;;;13.60;99.90;;;;;;6203752;23;20421;-74
2023/11/14 11:40:27;;;;;;;27.38;5.68;;;13.70;99.90;;;;;;6204809;23;20098;-75
2023/11/14 11:42:55;;;;;;;28.92;4.15;;;13.70;99.90;;;;;;6203687;23;20342;-76
2023/11/14 11:45:35;;;;;;;18.05;3.75;;;13.70;99.90;;;;;;6202598;23;20456;-76
2023/11/14 11:48:02;;;;;;;20.58;3.10;;;13.70;99.90;;;;;;6204026;23;20016;-78
2023/11/14 11:50:35;;;;;;;30.65;3.70;;;13.60;99.90;;;;;;6202547;23;20021;-76
2023/11/14 11:53:05;;;;;;;25.08;3.63;;;13.70;99.90;;;;;;6202599;23;20008;-76
2023/11/14 11:55:35;;;;;;;39.55;5.57;;;13.70;99.90;;;;;;6203589;23;20004;-77
2023/11/14 11:58:08;;;;;;;20.77;4.35;;;13.60;99.90;;;;;;6205872;23;20008;-76
2023/11/14 12:00:35;;;;;;;28.60;3.25;;;13.70;99.90;;;;;;6204669;23;20012;-77
2023/11/14 12:03:04;;;;;;;28.02;5.10;;;13.70;99.90;;;;;;6205938;23;20011;-77
2023/11/14 12:05:32;;;;;;;26.50;3.80;;;13.70;99.90;;;;;;6205348;23;20008;-76
2023/11/14 12:07:58;;;;;;;29.20;4.95;;;13.70;99.90;;;;;;6206021;23;20008;-76
2023/11/14 12:10:25;;;;;;;25.42;3.00;;;13.70;99.90;;;;;;6205819;23;20020;-76
2023/11/14 12:12:56;;;;;;;26.77;4.55;;;13.70;99.90;;;;;;6208153;23;20012;-76
2023/11/14 12:15:22;;;;;;;32.00;4.63;;;13.70;99.90;;;;;;6206223;23;20013;-75
2023/11/14 12:17:53;;;;;;;29.80;6.53;;;13.70;99.90;;;;;;6205153;23;20019;-77
2023/11/14 12:20:21;;;;;;;20.67;2.90;;;13.70;99.90;;;;;;6204541;23;20027;-74
2023/11/14 12:22:49;;;;;;;18.92;3.65;;;13.70;99.90;;;;;;6205209;23;20012;-76
2023/11/14 12:25:16;;;;;;;20.48;4.53;;;13.60;99.90;;;;;;6205774;23;20039;-73
2023/11/14 12:27:57;;;;;;;27.45;3.42;;;13.60;99.90;;;;;;6205782;23;20032;-75
2023/11/14 12:30:24;;;;;;;25.00;3.90;;;13.60;99.90;;;;;;6204725;23;20079;-76
2023/11/14 12:33:12;;;;;;;21.52;4.15;;;13.60;99.90;;;;;;6205129;23;20524;-75
2023/11/14 12:35:57;;;;;;;29.13;3.63;;;13.60;99.90;;;;;;6204359;23;20020;-76
2023/11/14 12:38:29;;;;;;;24.25;3.67;;;13.60;99.90;;;;;;6204348;23;20092;-75
2023/11/14 12:41:20;;;;;;;21.90;3.20;;;13.50;99.90;;;;;;6205837;23;20005;-77
2023/11/14 12:43:59;;;;;;;13.68;2.90;;;13.50;99.90;;;;;;6204311;23;20008;-76